Conquest, New York
Current Conditions -  °F | °C
As of 7:54 PM on Monday 20 Oct 2014 (Local Time) from KFZY Reporting Station
Overcast Overcast  
Wind Chill: 51°   Ceiling: 7000
Heat Index: 51°   Visibility: 10mi
Dew Point: 40°   Wind: 0mph
Humidity: 66%   Direction: NA
Pressure: 29.87"   Gusts: NA
Location:  43.0228°N, 76.6522°W
Report Text: KFZY 202354Z AUTO 00000KT 10SM OVC070 11/04 A2987 RMK AO2 SLP117 T01060044 10117 20106 53000
Loading
Personal Weather Stations






























Interactive Weather Map
Tropical Storm Tracking
New forecast layout! Learn more

10-Day Weather Forecast

Advertisements
Track Severe Weather on mobile